createdAt,value
2022-12-31T00:03:34.114Z,5.91
2022-12-31T00:07:50.410Z,6.22
2022-12-31T00:12:07.020Z,6.41
2022-12-31T00:16:28.665Z,6.41
2022-12-31T00:20:44.939Z,6.50
2022-12-31T00:25:01.179Z,5.95
2022-12-31T00:29:17.385Z,6.38
2022-12-31T00:33:33.605Z,6.37
2022-12-31T00:37:51.546Z,6.16
2022-12-31T00:42:07.928Z,6.35
2022-12-31T00:46:25.379Z,6.63
2022-12-31T00:50:41.625Z,6.42
2022-12-31T00:54:58.058Z,6.37
2022-12-31T00:59:14.204Z,6.07
2022-12-31T01:03:30.391Z,6.41
2022-12-31T01:07:46.614Z,6.29
2022-12-31T01:12:03.730Z,6.32
2022-12-31T01:16:22.412Z,6.22
2022-12-31T01:20:40.486Z,6.42
2022-12-31T01:24:56.696Z,6.53
2022-12-31T01:29:14.496Z,6.36
2022-12-31T01:33:30.775Z,6.44
2022-12-31T01:37:49.468Z,6.41
2022-12-31T01:42:05.891Z,6.25
2022-12-31T01:46:25.454Z,6.44
2022-12-31T01:50:44.567Z,6.40
2022-12-31T01:55:28.655Z,6.23
2022-12-31T01:59:45.622Z,6.30
2022-12-31T02:04:05.604Z,6.05
2022-12-31T02:08:22.280Z,6.32
2022-12-31T02:12:38.681Z,6.34
2022-12-31T02:17:00.693Z,6.17
2022-12-31T02:21:30.208Z,6.21
2022-12-31T02:25:55.348Z,6.23
2022-12-31T02:30:32.471Z,6.32
2022-12-31T02:35:04.676Z,6.23
2022-12-31T02:39:21.419Z,6.15
2022-12-31T02:43:46.006Z,6.27
2022-12-31T02:48:07.976Z,6.33
2022-12-31T02:52:49.146Z,6.22
2022-12-31T02:57:34.142Z,6.24
2022-12-31T03:02:14.330Z,6.28
2022-12-31T03:06:31.468Z,6.33
2022-12-31T03:10:47.655Z,6.30
2022-12-31T03:15:06.838Z,6.37
2022-12-31T03:19:41.345Z,6.32
2022-12-31T03:24:16.061Z,6.24
2022-12-31T03:28:32.260Z,6.18
2022-12-31T03:32:49.421Z,6.05
2022-12-31T03:37:05.575Z,6.11
2022-12-31T03:41:21.725Z,6.30
2022-12-31T03:45:38.053Z,6.45
2022-12-31T03:49:54.362Z,6.47
2022-12-31T03:54:10.679Z,6.41
2022-12-31T03:58:26.947Z,6.44
2022-12-31T04:02:43.132Z,6.27
2022-12-31T04:06:59.349Z,6.06
2022-12-31T04:11:20.649Z,6.08
2022-12-31T04:15:37.244Z,6.09
2022-12-31T04:19:53.498Z,6.05
2022-12-31T04:24:09.954Z,6.42
2022-12-31T04:28:26.316Z,5.98
2022-12-31T04:32:42.825Z,6.22
2022-12-31T04:36:59.298Z,6.43
2022-12-31T04:41:18.247Z,6.15
2022-12-31T04:45:34.499Z,6.26
2022-12-31T04:49:50.604Z,6.61
2022-12-31T04:54:06.890Z,6.53
2022-12-31T04:58:23.093Z,6.44
2022-12-31T05:02:39.472Z,6.52
2022-12-31T05:06:55.812Z,6.25
2022-12-31T05:11:12.044Z,6.61
2022-12-31T05:15:28.298Z,6.39
2022-12-31T05:19:44.443Z,6.81
2022-12-31T05:24:00.615Z,6.76
2022-12-31T05:28:17.097Z,6.96
2022-12-31T05:32:33.759Z,6.99
2022-12-31T05:36:49.906Z,6.60
2022-12-31T05:41:07.928Z,6.63
2022-12-31T05:45:30.333Z,6.63
2022-12-31T05:49:47.292Z,6.77
2022-12-31T05:54:03.528Z,6.86
2022-12-31T05:58:19.623Z,6.69
2022-12-31T06:02:35.877Z,7.10
2022-12-31T06:06:52.198Z,7.03
2022-12-31T06:11:08.370Z,6.92
2022-12-31T06:15:24.490Z,6.96
2022-12-31T06:19:40.669Z,7.17
2022-12-31T06:23:56.874Z,6.86
2022-12-31T06:28:19.846Z,7.25
2022-12-31T06:32:36.668Z,7.16
2022-12-31T06:36:52.953Z,7.06
2022-12-31T06:41:11.414Z,7.01
2022-12-31T06:45:28.455Z,7.17
2022-12-31T06:49:44.831Z,6.90
2022-12-31T06:54:01.023Z,7.13
2022-12-31T06:58:18.043Z,7.09
2022-12-31T07:02:47.009Z,6.99
2022-12-31T07:07:36.934Z,7.12
2022-12-31T13:51:19.135Z,5.16
2022-12-31T13:55:45.249Z,6.65
2022-12-31T14:00:04.935Z,7.87
2022-12-31T14:04:47.748Z,8.42
2022-12-31T14:09:05.051Z,9.11
2022-12-31T14:14:15.519Z,9.32
2022-12-31T14:18:46.720Z,9.36
2022-12-31T14:23:30.012Z,9.38
2022-12-31T14:27:46.826Z,9.55
2022-12-31T14:32:20.362Z,9.81
2022-12-31T14:37:11.434Z,10.04
2022-12-31T14:41:51.185Z,9.67
2022-12-31T14:46:27.536Z,9.88
2022-12-31T14:50:46.374Z,9.75
2022-12-31T14:55:09.897Z,9.92
2022-12-31T14:59:28.362Z,9.40
2022-12-31T15:03:46.326Z,9.62
2022-12-31T15:08:22.321Z,9.55
2022-12-31T15:13:06.531Z,9.51
2022-12-31T15:17:36.639Z,9.66
2022-12-31T15:22:27.839Z,9.66
2022-12-31T15:26:53.133Z,9.42
2022-12-31T15:31:18.518Z,9.39
2022-12-31T15:35:48.409Z,9.33
2022-12-31T15:40:25.809Z,9.23
2022-12-31T15:45:02.384Z,9.33
2022-12-31T15:49:23.281Z,9.47
2022-12-31T15:53:52.775Z,9.59
2022-12-31T15:58:14.468Z,9.44
2022-12-31T16:02:30.779Z,9.35
2022-12-31T16:06:50.689Z,9.42
2022-12-31T16:11:08.866Z,9.22
2022-12-31T16:15:28.514Z,9.31
2022-12-31T16:19:48.651Z,9.28
2022-12-31T16:24:06.397Z,9.31
2022-12-31T16:28:25.313Z,9.36
2022-12-31T16:32:42.599Z,9.05
2022-12-31T16:37:04.498Z,9.20
2022-12-31T16:41:22.233Z,9.08
2022-12-31T16:45:38.886Z,8.86
2022-12-31T16:50:04.234Z,9.13
2022-12-31T16:54:42.179Z,9.32
2022-12-31T16:59:06.621Z,9.34
2022-12-31T17:03:28.464Z,9.44
2022-12-31T17:07:44.663Z,9.29
2022-12-31T17:12:16.513Z,9.30
2022-12-31T17:16:34.281Z,9.19
2022-12-31T17:20:52.580Z,9.20
2022-12-31T17:25:09.790Z,9.29
2022-12-31T17:29:26.798Z,9.30
2022-12-31T17:33:42.980Z,9.33
2022-12-31T17:38:18.046Z,9.23
2022-12-31T17:42:37.099Z,9.31
2022-12-31T17:46:53.835Z,9.03
2022-12-31T17:51:10.312Z,9.08
2022-12-31T17:55:26.810Z,9.18
2022-12-31T17:59:42.951Z,9.28
2022-12-31T18:03:59.110Z,9.08
2022-12-31T18:08:15.334Z,9.15
2022-12-31T18:12:31.584Z,9.13
2022-12-31T18:16:48.467Z,9.10
2022-12-31T18:21:07.825Z,9.02
2022-12-31T18:25:24.597Z,9.00
2022-12-31T18:29:40.764Z,9.12
2022-12-31T18:33:59.243Z,8.91
2022-12-31T18:38:17.335Z,8.94
2022-12-31T18:42:33.511Z,8.95
2022-12-31T18:46:50.923Z,8.93
2022-12-31T18:51:08.038Z,8.87
2022-12-31T18:55:39.848Z,9.03
2022-12-31T18:59:56.277Z,8.92
2022-12-31T19:04:26.637Z,9.08
2022-12-31T19:08:43.937Z,8.97
2022-12-31T19:13:00.117Z,8.61
2022-12-31T19:17:16.298Z,8.78
2022-12-31T19:21:32.582Z,8.78
2022-12-31T19:25:49.520Z,8.89
2022-12-31T19:30:06.300Z,8.73
2022-12-31T19:34:22.571Z,8.68
2022-12-31T19:38:38.700Z,8.54
2022-12-31T19:42:56.056Z,8.76
2022-12-31T19:47:13.405Z,8.43
2022-12-31T19:51:29.545Z,8.55
2022-12-31T19:55:45.854Z,8.65
2022-12-31T20:00:02.027Z,8.42
2022-12-31T20:04:18.462Z,8.81
2022-12-31T20:08:36.714Z,8.81
2022-12-31T20:12:52.932Z,8.61
2022-12-31T20:17:10.743Z,8.70
2022-12-31T20:21:29.262Z,8.38
2022-12-31T20:25:45.419Z,8.56
2022-12-31T20:30:01.638Z,8.42
2022-12-31T20:34:18.044Z,8.19
2022-12-31T20:38:34.507Z,8.28
2022-12-31T20:42:50.641Z,8.24
2022-12-31T20:47:06.872Z,8.24
2022-12-31T20:51:24.366Z,8.11
2022-12-31T20:55:44.573Z,8.04
2022-12-31T21:00:01.332Z,7.85
2022-12-31T21:04:17.718Z,8.03
2022-12-31T21:08:35.175Z,8.13
2022-12-31T21:12:54.306Z,8.10
2022-12-31T21:17:10.454Z,7.96
2022-12-31T21:21:27.350Z,7.87
2022-12-31T21:25:46.241Z,8.10
2022-12-31T21:30:19.537Z,7.94
2022-12-31T21:34:36.133Z,8.14
2022-12-31T21:38:52.458Z,7.96
2022-12-31T21:43:10.017Z,7.80
2022-12-31T21:47:47.676Z,8.04
2022-12-31T21:52:22.681Z,7.92
2022-12-31T21:56:38.877Z,8.02
2022-12-31T22:01:15.540Z,8.07
2022-12-31T22:05:31.803Z,7.99
2022-12-31T22:09:48.017Z,7.96
2022-12-31T22:14:04.175Z,7.75
2022-12-31T22:18:20.688Z,7.87
2022-12-31T22:22:36.951Z,7.72
2022-12-31T22:26:55.732Z,7.93
2022-12-31T22:31:15.585Z,7.79
2022-12-31T22:35:31.738Z,7.85
2022-12-31T22:39:47.963Z,7.76
2022-12-31T22:44:05.329Z,7.90
2022-12-31T22:48:21.486Z,7.84
2022-12-31T22:52:37.802Z,7.95
2022-12-31T22:56:54.046Z,7.97
2022-12-31T23:01:34.646Z,7.92
2022-12-31T23:05:52.709Z,7.95
2022-12-31T23:10:29.175Z,7.85
2022-12-31T23:15:04.111Z,7.49
2022-12-31T23:19:39.059Z,7.87
2022-12-31T23:23:55.214Z,7.60
2022-12-31T23:28:18.534Z,7.76
2022-12-31T23:32:34.719Z,7.64
2022-12-31T23:36:50.869Z,7.75
2022-12-31T23:41:18.455Z,7.94
2022-12-31T23:45:35.502Z,7.81
2022-12-31T23:49:51.676Z,7.91
2022-12-31T23:54:08.313Z,8.09
2022-12-31T23:58:25.155Z,8.07
